createdAt,value
2017-05-24T00:00:18.806Z,3.42
2017-05-24T00:02:47.048Z,3.70
2017-05-24T00:05:15.722Z,4.06
2017-05-24T00:07:43.972Z,3.60
2017-05-24T00:10:12.202Z,3.20
2017-05-24T00:12:46.881Z,3.48
2017-05-24T00:15:15.244Z,3.14
2017-05-24T00:17:43.496Z,2.62
2017-05-24T00:28:53.001Z,2.64
2017-05-24T00:31:21.237Z,3.00
2017-05-24T00:33:49.492Z,3.20
2017-05-24T00:36:17.732Z,2.64
2017-05-24T00:38:45.978Z,2.86
2017-05-24T00:41:14.214Z,2.54
2017-05-24T00:43:42.488Z,2.88
2017-05-24T00:46:10.732Z,2.58
2017-05-24T00:51:33.220Z,2.90
2017-05-24T00:54:01.496Z,2.62
2017-05-24T00:56:29.720Z,2.82
2017-05-24T00:58:57.954Z,2.56
2017-05-24T01:01:39.579Z,2.50
2017-05-24T01:04:17.507Z,2.56
2017-05-24T01:06:45.759Z,2.70
2017-05-24T01:09:13.995Z,2.32
2017-05-24T01:11:42.232Z,2.40
2017-05-24T01:14:11.431Z,2.82
2017-05-24T01:16:39.664Z,2.30
2017-05-24T01:22:02.245Z,2.14
2017-05-24T01:24:30.561Z,2.12
2017-05-24T01:26:58.835Z,2.18
2017-05-24T01:29:27.064Z,2.38
2017-05-24T01:31:55.328Z,2.30
2017-05-24T01:34:23.563Z,2.30
2017-05-24T01:36:51.812Z,1.64
2017-05-24T01:39:20.101Z,2.44
2017-05-24T01:41:48.356Z,1.86
2017-05-24T01:44:16.627Z,2.06
2017-05-24T01:46:44.903Z,1.90
2017-05-24T01:49:13.186Z,1.76
2017-05-24T01:51:41.415Z,2.12
2017-05-24T01:54:15.588Z,2.60
2017-05-24T01:56:43.816Z,1.50
2017-05-24T02:02:05.604Z,2.24
2017-05-24T02:04:33.892Z,1.74
2017-05-24T02:07:02.132Z,1.68
2017-05-24T02:09:31.631Z,1.72
2017-05-24T02:11:59.859Z,2.40
2017-05-24T02:14:28.127Z,2.20
2017-05-24T02:16:56.358Z,1.94
2017-05-24T02:19:24.612Z,1.98
2017-05-24T02:21:52.856Z,1.70
2017-05-24T02:24:21.092Z,2.34
2017-05-24T02:26:49.352Z,1.62
2017-05-24T02:29:17.583Z,1.80
2017-05-24T02:31:45.875Z,2.00
2017-05-24T02:34:20.172Z,1.90
2017-05-24T02:36:48.413Z,2.04
2017-05-24T02:39:16.648Z,1.82
2017-05-24T02:41:44.910Z,1.76
2017-05-24T02:44:13.281Z,2.02
2017-05-24T02:46:41.543Z,2.04
2017-05-24T02:49:09.780Z,1.80
2017-05-24T02:51:38.011Z,1.70
2017-05-24T02:54:06.269Z,1.84
2017-05-24T02:56:34.507Z,2.06
2017-05-24T02:59:02.755Z,1.60
2017-05-24T03:04:25.223Z,1.94
2017-05-24T03:06:53.451Z,1.82
2017-05-24T03:09:21.723Z,1.80
2017-05-24T03:11:49.979Z,2.08
2017-05-24T03:14:18.261Z,1.98
2017-05-24T03:16:46.486Z,2.14
2017-05-24T03:19:18.539Z,1.90
2017-05-24T03:21:46.774Z,1.88
2017-05-24T03:24:15.009Z,1.96
2017-05-24T03:26:43.249Z,2.16
2017-05-24T03:29:11.503Z,2.82
2017-05-24T03:31:39.748Z,2.20
2017-05-24T03:34:07.977Z,2.12
2017-05-24T03:36:36.332Z,2.02
2017-05-24T03:39:04.581Z,1.94
2017-05-24T03:41:32.865Z,2.12
2017-05-24T03:44:01.109Z,2.46
2017-05-24T03:46:29.351Z,2.24
2017-05-24T03:48:57.640Z,2.00
2017-05-24T03:51:25.951Z,2.10
2017-05-24T03:53:54.352Z,2.22
2017-05-24T03:56:22.617Z,2.20
2017-05-24T03:58:50.879Z,2.08
2017-05-24T04:01:19.126Z,2.46
2017-05-24T04:03:47.383Z,1.82
2017-05-24T04:06:15.687Z,1.96
2017-05-24T04:08:43.945Z,2.16
2017-05-24T04:11:12.208Z,2.46
2017-05-24T04:13:40.449Z,2.30
2017-05-24T04:16:08.704Z,1.96
2017-05-24T04:18:36.952Z,2.80
2017-05-24T04:21:05.197Z,2.00
2017-05-24T04:23:33.427Z,1.88
2017-05-24T04:26:01.681Z,1.96
2017-05-24T04:28:29.957Z,2.12
2017-05-24T04:30:58.227Z,2.28
2017-05-24T04:33:26.480Z,2.92
2017-05-24T04:35:54.730Z,2.60
2017-05-24T04:38:22.959Z,2.50
2017-05-24T04:40:51.184Z,2.68
2017-05-24T04:43:19.424Z,2.26
2017-05-24T04:45:47.677Z,1.90
2017-05-24T04:48:15.921Z,2.36
2017-05-24T04:50:44.164Z,2.46
2017-05-24T04:53:12.442Z,2.14
2017-05-24T04:55:40.695Z,2.32
2017-05-24T04:58:08.931Z,2.46
2017-05-24T05:00:37.187Z,2.20
2017-05-24T05:03:05.416Z,2.40
2017-05-24T05:05:33.667Z,2.58
2017-05-24T05:08:01.936Z,2.36
2017-05-24T05:10:30.201Z,2.40
2017-05-24T05:12:58.433Z,2.62
2017-05-24T05:15:26.669Z,2.30
2017-05-24T05:17:54.908Z,2.46
2017-05-24T05:20:23.161Z,2.94
2017-05-24T05:22:51.413Z,2.42
2017-05-24T05:25:19.679Z,2.92
2017-05-24T05:27:47.921Z,2.20
2017-05-24T05:30:16.173Z,2.10
2017-05-24T05:32:44.427Z,3.06
2017-05-24T05:35:13.066Z,2.70
2017-05-24T05:37:41.337Z,3.42
2017-05-24T05:40:09.600Z,3.20
2017-05-24T05:42:37.953Z,2.84
2017-05-24T05:45:06.203Z,3.10
2017-05-24T05:47:34.468Z,2.84
2017-05-24T05:50:02.707Z,2.70
2017-05-24T05:52:30.955Z,2.58
2017-05-24T05:54:59.192Z,2.82
2017-05-24T05:57:27.468Z,2.54
2017-05-24T05:59:55.719Z,2.80
2017-05-24T06:02:23.956Z,3.36
2017-05-24T06:04:52.216Z,4.52
2017-05-24T06:07:20.514Z,2.64
2017-05-24T06:09:48.771Z,2.68
2017-05-24T06:12:17.072Z,3.44
2017-05-24T06:14:45.333Z,2.70
2017-05-24T06:17:13.569Z,2.60
2017-05-24T06:19:41.827Z,2.90
2017-05-24T06:22:10.070Z,2.98
2017-05-24T06:24:38.328Z,3.10
2017-05-24T06:27:06.574Z,2.58
2017-05-24T06:29:34.811Z,2.90
2017-05-24T06:32:03.073Z,2.72
2017-05-24T06:34:31.363Z,2.70
2017-05-24T06:36:59.598Z,2.68
2017-05-24T06:39:27.867Z,2.68
2017-05-24T06:41:56.154Z,3.42
2017-05-24T06:44:24.464Z,2.62
2017-05-24T06:46:52.703Z,2.76
2017-05-24T06:49:20.955Z,2.88
2017-05-24T06:51:49.228Z,2.50
2017-05-24T06:54:17.455Z,2.82
2017-05-24T06:56:45.695Z,2.32
2017-05-24T06:59:13.927Z,3.06
2017-05-24T07:01:42.207Z,3.02
2017-05-24T07:04:10.463Z,2.86
2017-05-24T07:06:38.719Z,2.80
2017-05-24T07:09:06.967Z,2.50
2017-05-24T07:11:35.211Z,2.56
2017-05-24T07:14:03.483Z,2.76
2017-05-24T07:19:06.503Z,2.32
2017-05-24T07:21:34.763Z,2.60
2017-05-24T07:24:02.996Z,2.32
2017-05-24T07:26:31.247Z,2.62
2017-05-24T07:28:59.519Z,2.56
2017-05-24T07:31:27.759Z,3.06
2017-05-24T07:33:56.008Z,2.54
2017-05-24T07:36:24.276Z,2.58
2017-05-24T07:38:52.519Z,2.94
2017-05-24T07:41:20.796Z,3.24
2017-05-24T07:43:49.031Z,2.76
2017-05-24T07:46:17.292Z,2.70
2017-05-24T07:48:45.563Z,3.28
2017-05-24T07:51:13.817Z,3.18
2017-05-24T07:53:42.071Z,2.72
2017-05-24T07:56:10.331Z,3.26
2017-05-24T07:58:38.587Z,3.74
2017-05-24T08:01:06.837Z,2.60
2017-05-24T08:03:35.132Z,3.20
2017-05-24T08:06:03.381Z,3.54
2017-05-24T08:08:31.629Z,3.40
2017-05-24T08:10:59.859Z,3.52
2017-05-24T08:13:28.095Z,3.20
2017-05-24T08:15:56.363Z,3.10
2017-05-24T08:18:24.613Z,4.00
2017-05-24T08:20:52.879Z,3.28
2017-05-24T08:23:21.122Z,3.62
2017-05-24T08:25:49.352Z,3.38
2017-05-24T08:28:17.611Z,3.34
2017-05-24T08:30:45.871Z,3.56
2017-05-24T08:33:14.147Z,3.40
2017-05-24T08:35:42.412Z,3.66
2017-05-24T08:38:10.669Z,3.64
2017-05-24T08:40:38.910Z,3.74
2017-05-24T08:43:07.136Z,3.80
2017-05-24T08:45:35.388Z,3.76
2017-05-24T08:48:03.638Z,4.30
2017-05-24T08:50:31.913Z,4.24
2017-05-24T08:53:00.148Z,4.12
2017-05-24T08:55:28.397Z,4.12
2017-05-24T08:57:56.637Z,3.90
2017-05-24T09:00:24.898Z,3.48
2017-05-24T09:05:47.599Z,3.68
2017-05-24T09:08:15.847Z,3.84
2017-05-24T09:10:49.866Z,3.72
2017-05-24T09:13:18.120Z,3.60
2017-05-24T09:15:46.353Z,9.78
2017-05-24T09:18:14.611Z,3.94
2017-05-24T09:20:42.913Z,3.16
2017-05-24T09:23:11.205Z,3.68
2017-05-24T09:25:39.451Z,3.90
2017-05-24T09:28:07.708Z,3.34
2017-05-24T09:30:35.957Z,3.50
2017-05-24T09:33:04.219Z,3.48
2017-05-24T09:35:32.485Z,3.70
2017-05-24T09:38:00.733Z,3.98
2017-05-24T09:43:22.475Z,4.30
2017-05-24T09:45:50.711Z,3.80
2017-05-24T09:48:34.135Z,3.80
2017-05-24T09:51:02.397Z,3.94
2017-05-24T09:53:30.655Z,4.56
2017-05-24T09:55:58.930Z,4.36
2017-05-24T10:01:21.279Z,3.92
2017-05-24T10:03:49.566Z,3.42
2017-05-24T10:06:17.796Z,3.96
2017-05-24T10:08:46.030Z,4.78
2017-05-24T10:11:14.279Z,3.86
2017-05-24T10:13:42.526Z,3.48
2017-05-24T10:16:10.763Z,3.86
2017-05-24T10:18:39.026Z,4.22
2017-05-24T10:21:07.311Z,3.88
2017-05-24T10:23:35.570Z,3.36
2017-05-24T10:26:03.843Z,3.44
2017-05-24T10:28:32.084Z,3.74
2017-05-24T10:31:00.375Z,3.40
2017-05-24T10:33:28.616Z,4.06
2017-05-24T10:35:56.896Z,3.16
2017-05-24T10:38:31.006Z,3.94
2017-05-24T10:41:04.952Z,3.90
2017-05-24T10:43:33.198Z,3.64
2017-05-24T10:46:01.456Z,3.56
2017-05-24T10:48:29.702Z,3.70
2017-05-24T10:50:57.953Z,3.26
2017-05-24T10:53:26.280Z,3.42
2017-05-24T10:55:54.507Z,3.40
2017-05-24T10:58:22.765Z,3.36
2017-05-24T11:00:51.023Z,3.74
2017-05-24T11:03:19.276Z,3.24
2017-05-24T11:05:47.511Z,4.18
2017-05-24T11:08:15.748Z,3.60
2017-05-24T11:10:44.696Z,3.52
2017-05-24T11:13:12.927Z,3.58
2017-05-24T11:18:41.404Z,2.94
2017-05-24T11:21:09.680Z,3.16
2017-05-24T11:23:37.936Z,2.80
2017-05-24T11:26:06.198Z,3.16
2017-05-24T11:28:34.445Z,3.02
2017-05-24T11:31:02.708Z,3.20
2017-05-24T11:33:30.949Z,3.36
2017-05-24T11:35:59.215Z,3.08
2017-05-24T11:38:27.451Z,3.38
2017-05-24T11:40:55.812Z,4.40
2017-05-24T11:43:24.076Z,4.08
2017-05-24T11:45:52.341Z,4.24
2017-05-24T11:48:20.575Z,3.60
2017-05-24T11:50:48.826Z,3.92
2017-05-24T11:53:17.089Z,4.22
2017-05-24T11:55:45.343Z,4.06
2017-05-24T11:58:13.600Z,4.06
2017-05-24T12:00:41.869Z,3.32
2017-05-24T12:03:10.155Z,4.02
2017-05-24T12:05:38.463Z,3.90
2017-05-24T12:08:06.726Z,3.18
2017-05-24T12:10:34.950Z,3.60
2017-05-24T12:13:03.205Z,3.42
2017-05-24T12:15:31.887Z,3.36
2017-05-24T12:18:00.127Z,2.96
2017-05-24T12:20:28.379Z,3.74
2017-05-24T12:22:56.658Z,2.82
2017-05-24T12:25:24.904Z,3.64
2017-05-24T12:27:53.141Z,2.94
2017-05-24T12:30:21.375Z,2.96
2017-05-24T12:32:49.639Z,3.86
2017-05-24T12:35:17.938Z,3.34
2017-05-24T12:37:46.199Z,3.12
2017-05-24T12:40:14.439Z,3.04
2017-05-24T12:42:42.677Z,2.98
2017-05-24T12:45:10.939Z,4.10
2017-05-24T12:47:39.178Z,3.44
2017-05-24T12:53:01.420Z,3.34
2017-05-24T12:55:29.663Z,3.62
2017-05-24T12:57:57.923Z,3.58
2017-05-24T13:00:26.316Z,4.10
2017-05-24T13:02:54.577Z,3.76
2017-05-24T13:05:23.013Z,4.22
2017-05-24T13:07:51.261Z,3.50
2017-05-24T13:10:19.529Z,3.74
2017-05-24T13:12:48.509Z,3.46
2017-05-24T13:15:16.754Z,3.30
2017-05-24T13:17:44.992Z,3.82
2017-05-24T13:20:13.240Z,3.30
2017-05-24T13:22:41.484Z,3.18
2017-05-24T13:25:09.743Z,3.26
2017-05-24T13:27:51.887Z,3.18
2017-05-24T13:30:20.147Z,3.44
2017-05-24T13:32:48.389Z,3.36
2017-05-24T13:35:16.817Z,4.08
2017-05-24T13:37:45.071Z,3.54
2017-05-24T13:40:13.327Z,3.44
2017-05-24T13:45:35.207Z,3.00
2017-05-24T13:48:03.490Z,3.22
2017-05-24T13:50:44.185Z,3.30
2017-05-24T13:53:12.423Z,3.62
2017-05-24T13:55:40.696Z,2.92
2017-05-24T13:58:08.936Z,2.66
2017-05-24T14:00:37.182Z,3.22
2017-05-24T14:03:05.510Z,2.94
2017-05-24T14:05:33.776Z,3.04
2017-05-24T14:08:02.018Z,2.88
2017-05-24T14:10:30.261Z,3.36
2017-05-24T14:12:58.495Z,3.56
2017-05-24T14:15:26.736Z,3.30
2017-05-24T14:17:54.987Z,3.00
2017-05-24T14:20:23.271Z,3.78
2017-05-24T14:25:45.106Z,3.04
2017-05-24T14:28:13.336Z,3.64
2017-05-24T14:30:41.583Z,3.76
2017-05-24T14:33:09.819Z,3.56
2017-05-24T14:35:38.060Z,3.40
2017-05-24T14:38:06.299Z,3.88
2017-05-24T14:40:34.546Z,3.26
2017-05-24T14:43:02.815Z,3.54
2017-05-24T14:45:31.056Z,3.48
2017-05-24T14:47:59.305Z,3.30
2017-05-24T14:50:27.575Z,3.58
2017-05-24T14:52:55.823Z,3.58
2017-05-24T14:55:24.072Z,2.88
2017-05-24T14:57:52.308Z,2.82
2017-05-24T15:00:20.554Z,3.46
2017-05-24T15:02:48.792Z,3.68
2017-05-24T15:05:17.222Z,3.08
2017-05-24T15:07:45.455Z,3.30
2017-05-24T15:10:13.709Z,3.46
2017-05-24T15:12:48.415Z,3.72
2017-05-24T15:15:16.672Z,3.76
2017-05-24T15:17:44.895Z,3.74
2017-05-24T15:20:13.142Z,3.66
2017-05-24T15:22:41.371Z,3.46
2017-05-24T15:25:09.662Z,2.98
2017-05-24T15:27:37.915Z,3.10
2017-05-24T15:30:06.169Z,3.74
2017-05-24T15:32:34.446Z,2.82
2017-05-24T15:35:02.676Z,2.92
2017-05-24T15:37:30.927Z,3.24
2017-05-24T15:39:59.159Z,3.30
2017-05-24T15:42:27.413Z,3.22
2017-05-24T15:44:55.674Z,3.78
2017-05-24T15:47:23.916Z,3.68
2017-05-24T15:49:52.175Z,3.08
2017-05-24T15:52:20.423Z,3.28
2017-05-24T15:54:48.667Z,3.16
2017-05-24T15:57:17.015Z,3.12
2017-05-24T15:59:45.266Z,3.28
2017-05-24T16:02:13.495Z,2.28
2017-05-24T16:04:41.754Z,3.48
2017-05-24T16:07:10.023Z,2.98
2017-05-24T16:09:38.260Z,3.20
2017-05-24T16:12:06.538Z,3.00
2017-05-24T16:14:34.812Z,2.82
2017-05-24T16:17:03.103Z,3.34
2017-05-24T16:19:31.355Z,2.96
2017-05-24T16:21:59.606Z,3.10
2017-05-24T16:24:27.875Z,2.56
2017-05-24T16:26:56.102Z,2.68
2017-05-24T16:29:24.393Z,3.32
2017-05-24T16:31:52.647Z,3.50
2017-05-24T16:34:20.885Z,3.44
2017-05-24T16:36:49.165Z,3.28
2017-05-24T16:39:17.434Z,2.82
2017-05-24T16:41:45.753Z,3.30
2017-05-24T16:44:14.011Z,3.38
2017-05-24T16:46:42.286Z,3.00
2017-05-24T16:49:10.538Z,3.30
2017-05-24T16:51:38.806Z,3.14
2017-05-24T16:54:07.055Z,2.98
2017-05-24T16:56:35.304Z,2.98
2017-05-24T16:59:03.584Z,3.76
2017-05-24T17:01:31.813Z,3.36
2017-05-24T17:04:00.057Z,3.38
2017-05-24T17:06:28.307Z,4.32
2017-05-24T17:08:56.551Z,3.16
2017-05-24T17:11:24.808Z,3.28
2017-05-24T17:13:53.076Z,3.38
2017-05-24T17:16:21.337Z,3.12
2017-05-24T17:18:49.591Z,4.24
2017-05-24T17:21:17.843Z,3.56
2017-05-24T17:23:46.105Z,3.38
2017-05-24T17:26:14.340Z,4.12
2017-05-24T17:28:42.583Z,3.40
2017-05-24T17:31:10.833Z,3.36
2017-05-24T17:33:39.100Z,3.52
2017-05-24T17:36:07.360Z,4.06
2017-05-24T17:38:35.595Z,3.22
2017-05-24T17:41:03.872Z,3.12
2017-05-24T17:43:32.134Z,3.68
2017-05-24T17:46:00.374Z,4.34
2017-05-24T17:48:28.636Z,3.14
2017-05-24T17:50:56.915Z,3.86
2017-05-24T17:53:25.157Z,3.52
2017-05-24T17:55:53.408Z,3.16
2017-05-24T17:58:21.670Z,3.78
2017-05-24T18:00:49.999Z,3.64
2017-05-24T18:03:18.268Z,3.50
2017-05-24T18:05:46.536Z,3.42
2017-05-24T18:08:14.787Z,3.56
2017-05-24T18:10:43.056Z,3.84
2017-05-24T18:13:11.318Z,3.44
2017-05-24T18:15:39.608Z,3.72
2017-05-24T18:18:07.848Z,3.62
2017-05-24T18:20:36.131Z,3.70
2017-05-24T18:23:04.398Z,3.26
2017-05-24T18:25:32.675Z,3.14
2017-05-24T18:28:00.930Z,3.22
2017-05-24T18:30:29.213Z,3.48
2017-05-24T18:32:57.483Z,3.26
2017-05-24T18:35:26.187Z,3.10
2017-05-24T18:37:54.426Z,3.88
2017-05-24T18:40:22.663Z,3.40
2017-05-24T18:42:50.903Z,3.28
2017-05-24T18:45:19.140Z,3.30
2017-05-24T18:47:47.384Z,3.40
2017-05-24T18:50:15.666Z,3.22
2017-05-24T18:52:43.997Z,3.28
2017-05-24T18:55:12.232Z,3.08
2017-05-24T18:57:40.556Z,3.70
2017-05-24T19:00:08.798Z,3.62
2017-05-24T19:02:37.032Z,3.40
2017-05-24T19:05:06.027Z,3.64
2017-05-24T19:07:34.380Z,3.20
2017-05-24T19:10:02.633Z,3.44
2017-05-24T19:12:30.885Z,3.72
2017-05-24T19:14:59.117Z,3.30
2017-05-24T19:17:27.359Z,3.70
2017-05-24T19:19:55.640Z,3.74
2017-05-24T19:22:23.907Z,3.26
2017-05-24T19:24:52.184Z,3.32
2017-05-24T19:27:20.433Z,3.12
2017-05-24T19:29:48.683Z,3.28
2017-05-24T19:32:16.946Z,3.94
2017-05-24T19:34:45.180Z,3.02
2017-05-24T19:37:13.447Z,3.24
2017-05-24T19:39:41.676Z,3.54
2017-05-24T19:42:09.954Z,3.82
2017-05-24T19:44:38.179Z,4.36
2017-05-24T19:47:06.449Z,3.98
2017-05-24T19:49:34.695Z,9.26
2017-05-24T19:52:02.966Z,5.76
2017-05-24T19:54:31.228Z,3.34
2017-05-24T19:56:59.479Z,3.40
2017-05-24T19:59:27.709Z,3.68
2017-05-24T20:01:55.983Z,3.20
2017-05-24T20:04:24.215Z,3.76
2017-05-24T20:06:52.449Z,3.52
2017-05-24T20:09:20.686Z,4.02
2017-05-24T20:11:48.927Z,3.36
2017-05-24T20:14:17.190Z,3.40
2017-05-24T20:16:45.443Z,3.88
2017-05-24T20:19:13.688Z,3.66
2017-05-24T20:21:41.919Z,3.30
2017-05-24T20:24:10.173Z,4.04
2017-05-24T20:26:38.417Z,4.68
2017-05-24T20:29:06.664Z,3.98
2017-05-24T20:31:34.896Z,3.98
2017-05-24T20:34:03.154Z,4.44
2017-05-24T20:36:31.421Z,4.26
2017-05-24T20:38:59.683Z,8.58
2017-05-24T20:41:27.936Z,8.78
2017-05-24T20:43:56.205Z,5.48
2017-05-24T20:46:24.444Z,5.12
2017-05-24T20:48:52.680Z,5.48
2017-05-24T20:51:20.968Z,4.82
2017-05-24T20:53:49.216Z,4.32
2017-05-24T20:56:17.476Z,4.26
2017-05-24T20:58:45.708Z,4.24
2017-05-24T21:01:13.950Z,3.90
2017-05-24T21:03:42.195Z,3.60
2017-05-24T21:06:10.483Z,3.70
2017-05-24T21:08:38.734Z,3.80
2017-05-24T21:11:06.975Z,3.74
2017-05-24T21:13:35.253Z,4.42
2017-05-24T21:16:03.505Z,3.92
2017-05-24T21:18:31.776Z,4.14
2017-05-24T21:21:00.043Z,3.50
2017-05-24T21:23:28.293Z,3.66
2017-05-24T21:25:56.543Z,3.82
2017-05-24T21:28:24.820Z,4.48
2017-05-24T21:30:53.043Z,4.68
2017-05-24T21:33:21.311Z,6.50
2017-05-24T21:35:49.564Z,5.58
2017-05-24T21:38:17.842Z,4.28
2017-05-24T21:40:46.081Z,4.30
2017-05-24T21:43:14.335Z,4.30
2017-05-24T21:45:42.621Z,4.50
2017-05-24T21:48:10.858Z,4.18
2017-05-24T21:50:39.098Z,3.90
2017-05-24T21:53:07.336Z,3.96
2017-05-24T21:55:35.575Z,4.72
2017-05-24T21:58:03.847Z,4.12
2017-05-24T22:00:32.088Z,5.26
2017-05-24T22:03:00.339Z,5.34
2017-05-24T22:05:28.575Z,4.72
2017-05-24T22:07:56.820Z,4.22
2017-05-24T22:10:25.146Z,6.24
2017-05-24T22:12:53.372Z,4.96
2017-05-24T22:15:21.646Z,5.92
2017-05-24T22:17:49.894Z,4.64
2017-05-24T22:20:18.170Z,4.68
2017-05-24T22:22:46.408Z,4.68
2017-05-24T22:25:14.731Z,4.90
2017-05-24T22:27:42.980Z,4.76
2017-05-24T22:30:11.248Z,4.86
2017-05-24T22:32:39.503Z,5.04
2017-05-24T22:35:08.180Z,5.14
2017-05-24T22:37:36.472Z,4.48
2017-05-24T22:40:04.743Z,4.94
2017-05-24T22:42:33.008Z,5.18
2017-05-24T22:45:01.253Z,4.92
2017-05-24T22:47:29.507Z,5.30
2017-05-24T22:49:57.803Z,4.12
2017-05-24T22:52:26.032Z,4.84
2017-05-24T22:54:54.288Z,4.78
2017-05-24T22:57:22.555Z,4.72
2017-05-24T22:59:50.783Z,4.48
2017-05-24T23:02:19.043Z,5.26
2017-05-24T23:04:47.295Z,5.18
2017-05-24T23:07:15.536Z,5.70
2017-05-24T23:09:43.781Z,4.86
2017-05-24T23:12:12.026Z,4.52
2017-05-24T23:14:40.336Z,4.34
2017-05-24T23:17:08.568Z,5.00
2017-05-24T23:19:36.839Z,4.20
2017-05-24T23:22:05.121Z,7.02
2017-05-24T23:24:33.388Z,5.48
2017-05-24T23:27:01.635Z,5.32
2017-05-24T23:29:29.855Z,4.98
2017-05-24T23:31:58.128Z,4.90
2017-05-24T23:34:26.376Z,4.62
2017-05-24T23:36:54.651Z,5.46
2017-05-24T23:39:22.910Z,5.74
2017-05-24T23:41:51.198Z,4.66
2017-05-24T23:44:19.451Z,5.92
2017-05-24T23:46:47.698Z,6.10
2017-05-24T23:49:15.945Z,6.44
2017-05-24T23:51:44.200Z,5.90
2017-05-24T23:54:12.459Z,6.90
2017-05-24T23:56:40.702Z,5.90
2017-05-24T23:59:08.948Z,6.94
